Time;durP1;ratioP1;P1;durP2;ratioP2;P2;SDS_P1;SDS_P2;PMS_P1;PMS_P2;Temp;Humidity;BMP_temperature;BMP_pressure;BME280_temperature;BME280_humidity;BME280_pressure;Samples;Min_cycle;Max_cycle;Signal;HPM_P1;HPM_P2
2022/10/12 00:00:02;;;;;;;22.13;8.25;;;6.30;99.90;;;;;;5064129;28;20041;-69
2022/10/12 00:02:27;;;;;;;22.70;9.00;;;6.30;99.90;;;;;;5036718;28;20150;-68
2022/10/12 00:04:53;;;;;;;20.77;7.30;;;6.40;99.90;;;;;;5037441;28;20079;-68
2022/10/12 00:07:19;;;;;;;21.98;7.18;;;6.40;99.90;;;;;;5036429;28;20040;-69
2022/10/12 00:09:44;;;;;;;15.60;6.85;;;6.30;99.90;;;;;;5065456;28;20610;-68
2022/10/12 00:12:10;;;;;;;17.88;6.50;;;6.30;99.90;;;;;;5041635;28;20076;-69
2022/10/12 00:14:36;;;;;;;17.33;7.50;;;6.30;99.90;;;;;;5040964;28;20695;-69
2022/10/12 00:17:02;;;;;;;24.73;8.57;;;6.20;99.90;;;;;;5072348;28;20040;-69
2022/10/12 00:19:28;;;;;;;20.67;9.05;;;6.30;99.90;;;;;;5071708;28;20048;-69
2022/10/12 00:21:54;;;;;;;23.83;8.57;;;6.30;99.90;;;;;;5068113;28;20421;-69
2022/10/12 00:24:19;;;;;;;30.70;10.00;;;6.30;99.90;;;;;;5067416;28;20098;-69
2022/10/12 00:26:45;;;;;;;25.17;7.68;;;6.30;99.90;;;;;;5034169;28;20678;-69
2022/10/12 00:29:10;;;;;;;18.50;7.90;;;6.40;99.90;;;;;;5032402;28;20055;-68
2022/10/12 00:31:36;;;;;;;22.83;7.03;;;6.30;99.90;;;;;;5068889;28;20804;-69
2022/10/12 00:34:02;;;;;;;20.88;7.18;;;6.40;99.90;;;;;;5038362;28;20045;-69
2022/10/12 00:36:34;;;;;;;17.10;7.28;;;6.40;99.90;;;;;;5037514;28;20047;-69
2022/10/12 00:39:02;;;;;;;17.70;8.20;;;6.50;99.90;;;;;;5068219;28;20072;-69
2022/10/12 00:41:30;;;;;;;19.67;8.30;;;6.50;99.90;;;;;;5033024;28;20295;-69
2022/10/12 00:43:56;;;;;;;25.13;10.70;;;6.40;99.90;;;;;;5041318;28;20045;-69
2022/10/12 00:46:31;;;;;;;28.60;9.18;;;6.50;99.90;;;;;;5035785;28;20435;-68
2022/10/12 00:49:15;;;;;;;21.65;8.13;;;6.40;99.90;;;;;;5067900;28;20499;-68
2022/10/12 00:51:44;;;;;;;20.33;7.88;;;6.40;99.90;;;;;;5036031;28;20179;-68
2022/10/12 00:54:15;;;;;;;26.80;9.13;;;6.30;99.90;;;;;;5036761;28;20049;-68
2022/10/12 00:56:43;;;;;;;21.45;9.48;;;6.30;99.90;;;;;;5034207;28;20036;-68
2022/10/12 00:59:31;;;;;;;20.75;7.78;;;6.20;99.90;;;;;;5034667;28;20069;-68
2022/10/12 01:01:57;;;;;;;23.77;9.32;;;6.10;99.90;;;;;;5065059;28;20041;-68
2022/10/12 01:04:23;;;;;;;22.05;8.77;;;6.30;99.90;;;;;;5038094;28;20041;-68
2022/10/12 01:06:49;;;;;;;21.88;8.00;;;6.20;99.90;;;;;;5063385;28;20041;-68
2022/10/12 01:09:15;;;;;;;21.25;8.68;;;6.20;99.90;;;;;;5041916;28;20047;-68
2022/10/12 01:11:41;;;;;;;25.75;10.35;;;6.20;99.90;;;;;;5035657;28;21402;-69
2022/10/12 01:14:07;;;;;;;21.23;9.90;;;6.30;99.90;;;;;;5042220;28;20186;-68
2022/10/12 01:16:51;;;;;;;29.23;10.63;;;6.30;99.90;;;;;;5059507;28;20041;-68
2022/10/12 01:19:34;;;;;;;33.05;11.23;;;6.20;99.90;;;;;;5067303;28;20099;-68
2022/10/12 01:22:06;;;;;;;26.02;10.45;;;6.20;99.90;;;;;;5040504;28;20047;-68
2022/10/12 01:24:51;;;;;;;36.92;12.85;;;6.30;99.90;;;;;;5038466;28;20091;-68
2022/10/12 01:27:42;;;;;;;23.63;9.75;;;6.20;99.90;;;;;;5036614;28;20087;-68
2022/10/12 01:30:24;;;;;;;22.13;9.50;;;6.20;99.90;;;;;;5035862;28;20063;-68
2022/10/12 01:32:49;;;;;;;22.15;10.35;;;6.30;99.90;;;;;;5065100;28;20045;-68
2022/10/12 01:35:18;;;;;;;25.50;11.30;;;6.20;99.90;;;;;;5036017;28;20423;-68
2022/10/12 01:37:50;;;;;;;30.50;12.27;;;6.30;99.90;;;;;;5038829;28;20380;-68
2022/10/12 01:40:23;;;;;;;28.58;11.65;;;6.30;99.90;;;;;;5068674;28;20069;-68
2022/10/12 01:42:49;;;;;;;31.38;11.73;;;6.30;99.90;;;;;;5035920;28;20044;-68
2022/10/12 01:45:17;;;;;;;34.67;12.38;;;6.30;99.90;;;;;;5034548;28;20045;-68
2022/10/12 01:47:51;;;;;;;39.35;15.57;;;6.40;99.90;;;;;;5036505;28;20045;-68
2022/10/12 01:50:20;;;;;;;31.60;12.23;;;6.40;99.90;;;;;;5069113;28;20073;-68
2022/10/12 01:53:04;;;;;;;35.85;12.55;;;6.40;99.90;;;;;;5034928;28;20295;-68
2022/10/12 01:55:36;;;;;;;39.35;15.43;;;6.40;99.90;;;;;;5022694;28;20041;-68
2022/10/12 01:58:28;;;;;;;36.30;15.32;;;6.50;99.90;;;;;;5041099;28;20123;-69
2022/10/12 02:01:18;;;;;;;36.75;14.70;;;6.50;99.90;;;;;;5040507;28;20033;-69
2022/10/12 02:03:52;;;;;;;33.08;14.82;;;6.50;99.90;;;;;;5038178;28;20090;-69
2022/10/12 02:06:20;;;;;;;42.03;15.82;;;6.60;99.90;;;;;;5039492;28;20049;-69
2022/10/12 02:09:26;;;;;;;32.97;14.82;;;6.60;99.90;;;;;;5036676;28;20507;-69
2022/10/12 02:11:56;;;;;;;37.28;15.18;;;6.50;99.90;;;;;;4998213;28;20124;-68
2022/10/12 02:14:47;;;;;;;31.35;14.05;;;6.60;99.90;;;;;;5030964;28;20122;-69
2022/10/12 02:17:15;;;;;;;21.95;11.40;;;6.50;99.90;;;;;;5037193;28;20496;-69
2022/10/12 02:19:47;;;;;;;29.48;13.10;;;6.60;99.90;;;;;;5069241;28;20034;-69
2022/10/12 02:22:14;;;;;;;36.85;14.00;;;6.60;99.90;;;;;;5038621;28;20102;-69
2022/10/12 02:24:44;;;;;;;32.70;13.60;;;6.60;99.90;;;;;;5038289;28;20122;-69
2022/10/12 02:27:13;;;;;;;26.45;12.15;;;6.60;99.90;;;;;;5066366;28;20056;-69
2022/10/12 02:29:42;;;;;;;31.60;11.93;;;6.60;99.90;;;;;;5036404;28;20040;-69
2022/10/12 02:32:29;;;;;;;24.40;9.90;;;6.60;99.90;;;;;;5033622;28;20045;-69
2022/10/12 02:35:02;;;;;;;19.98;9.38;;;6.60;99.90;;;;;;5038937;28;20128;-69
2022/10/12 02:38:00;;;;;;;23.30;9.40;;;6.60;99.90;;;;;;5034881;28;20037;-68
2022/10/12 02:40:32;;;;;;;25.92;9.85;;;6.50;99.90;;;;;;5031580;28;20037;-69
2022/10/12 02:43:01;;;;;;;;;;;6.50;99.90;;;;;;5039946;28;20614;-69
2022/10/12 02:45:29;;;;;;;33.55;10.65;;;6.50;99.90;;;;;;5046909;28;20367;-69
2022/10/12 02:47:56;;;;;;;31.00;11.30;;;6.50;99.90;;;;;;5042688;28;20056;-69
2022/10/12 02:50:23;;;;;;;40.35;12.77;;;6.40;99.90;;;;;;5044372;28;20106;-69
2022/10/12 02:52:50;;;;;;;41.88;13.85;;;6.50;99.90;;;;;;5044822;28;20127;-69
2022/10/12 02:55:16;;;;;;;45.58;15.07;;;6.50;99.90;;;;;;5044470;28;20175;-69
2022/10/12 02:57:41;;;;;;;52.30;15.73;;;6.50;99.90;;;;;;5045372;28;20124;-69
2022/10/12 03:00:08;;;;;;;46.13;16.77;;;6.50;99.90;;;;;;5039777;28;20047;-69
2022/10/12 03:02:34;;;;;;;47.33;15.32;;;6.50;99.90;;;;;;5044879;28;20034;-69
2022/10/12 03:04:59;;;;;;;44.28;15.90;;;6.50;99.90;;;;;;5042794;28;20075;-69
2022/10/12 03:07:25;;;;;;;38.60;14.90;;;6.50;99.90;;;;;;5042449;28;20472;-68
2022/10/12 03:09:51;;;;;;;49.47;15.55;;;6.50;99.90;;;;;;5039657;28;20722;-68
2022/10/12 03:12:16;;;;;;;52.72;17.38;;;6.50;99.90;;;;;;5045949;28;20049;-68
2022/10/12 03:14:42;;;;;;;41.70;16.15;;;6.50;99.90;;;;;;5045929;28;20118;-68
2022/10/12 03:17:07;;;;;;;48.88;17.50;;;6.40;99.90;;;;;;5045204;28;20041;-68
2022/10/12 03:19:33;;;;;;;42.63;15.60;;;6.50;99.90;;;;;;5037432;28;20087;-68
2022/10/12 03:21:59;;;;;;;47.22;16.77;;;6.40;99.90;;;;;;5037783;28;20527;-68
2022/10/12 03:24:25;;;;;;;65.28;21.55;;;6.30;99.90;;;;;;5044054;28;20041;-68
2022/10/12 03:26:50;;;;;;;55.53;22.23;;;6.40;99.90;;;;;;5042518;28;20147;-68
2022/10/12 03:29:16;;;;;;;66.05;24.15;;;6.30;99.90;;;;;;5039771;28;20045;-68
2022/10/12 03:31:41;;;;;;;59.45;22.77;;;6.30;99.90;;;;;;5042292;28;20400;-68
2022/10/12 03:34:07;;;;;;;59.63;23.10;;;6.30;99.90;;;;;;5044743;28;20045;-68
2022/10/12 03:36:33;;;;;;;63.65;23.20;;;6.30;99.90;;;;;;5045060;28;20075;-68
2022/10/12 03:38:58;;;;;;;55.22;21.98;;;6.30;99.90;;;;;;5035345;28;20119;-68
2022/10/12 03:41:24;;;;;;;68.28;22.88;;;6.30;99.90;;;;;;5030993;28;20069;-68
2022/10/12 03:43:50;;;;;;;64.53;25.02;;;6.30;99.90;;;;;;5048271;28;20239;-68
2022/10/12 03:46:15;;;;;;;70.50;26.23;;;6.20;99.90;;;;;;5047184;28;20037;-68
2022/10/12 03:48:41;;;;;;;64.75;24.00;;;6.30;99.90;;;;;;5044299;28;20033;-68
2022/10/12 03:51:06;;;;;;;65.65;25.48;;;6.30;99.90;;;;;;5042373;28;20051;-68
2022/10/12 03:53:32;;;;;;;54.63;23.77;;;6.30;99.90;;;;;;5041879;28;20388;-68
2022/10/12 03:55:58;;;;;;;60.88;24.25;;;6.20;99.90;;;;;;5069041;28;20098;-68
2022/10/12 03:58:23;;;;;;;54.17;23.27;;;6.30;99.90;;;;;;5036068;28;20111;-68
2022/10/12 04:00:53;;;;;;;55.25;21.52;;;6.20;99.90;;;;;;5038215;28;20487;-68
2022/10/12 04:03:18;;;;;;;49.00;21.88;;;6.30;99.90;;;;;;5065550;28;20041;-68
2022/10/12 04:05:51;;;;;;;45.78;19.75;;;6.20;99.90;;;;;;5037698;28;20132;-67
2022/10/12 04:08:17;;;;;;;46.50;20.70;;;6.20;99.90;;;;;;5039736;28;20055;-68
2022/10/12 04:10:43;;;;;;;45.47;21.33;;;6.20;99.90;;;;;;5035009;28;20041;-68
2022/10/12 04:13:08;;;;;;;40.92;19.73;;;6.20;99.90;;;;;;5036903;28;20076;-68
2022/10/12 04:15:34;;;;;;;41.13;18.02;;;6.20;99.90;;;;;;5032545;28;20049;-68
2022/10/12 04:17:59;;;;;;;54.75;21.33;;;6.20;99.90;;;;;;5072427;28;20121;-68
2022/10/12 04:20:25;;;;;;;63.50;24.85;;;6.20;99.90;;;;;;5047975;28;20037;-68
2022/10/12 04:22:50;;;;;;;68.00;26.27;;;6.20;99.90;;;;;;5037003;28;20247;-68
2022/10/12 04:25:16;;;;;;;70.60;27.13;;;6.20;99.90;;;;;;5039957;28;20041;-68
2022/10/12 04:27:42;;;;;;;61.63;25.65;;;6.10;99.90;;;;;;5052467;28;20523;-68
2022/10/12 04:30:08;;;;;;;68.20;26.98;;;6.20;99.90;;;;;;5038765;28;20369;-68
2022/10/12 04:32:34;;;;;;;67.65;27.10;;;6.20;99.90;;;;;;5035395;28;20041;-68
2022/10/12 04:34:59;;;;;;;72.00;27.10;;;6.20;99.90;;;;;;5036859;28;20072;-68
2022/10/12 04:37:26;;;;;;;73.45;25.63;;;6.10;99.90;;;;;;5037995;28;20511;-67
2022/10/12 04:39:52;;;;;;;77.75;27.33;;;6.10;99.90;;;;;;5039451;28;20060;-67
2022/10/12 04:42:18;;;;;;;64.63;26.17;;;6.20;99.90;;;;;;5037223;28;20293;-67
2022/10/12 04:44:43;;;;;;;73.88;26.52;;;6.10;99.90;;;;;;5036308;28;20045;-67
2022/10/12 04:47:09;;;;;;;76.03;26.85;;;6.10;99.90;;;;;;5039201;28;20044;-67
2022/10/12 04:49:34;;;;;;;72.32;26.63;;;6.10;99.90;;;;;;5035390;28;20064;-67
2022/10/12 04:52:00;;;;;;;60.60;23.98;;;5.90;99.90;;;;;;5033423;28;20086;-67
2022/10/12 04:54:25;;;;;;;48.47;21.70;;;5.90;99.90;;;;;;5036300;28;20053;-67
2022/10/12 04:56:51;;;;;;;74.05;27.38;;;5.90;99.90;;;;;;5035668;28;20041;-67
2022/10/12 04:59:17;;;;;;;72.53;29.15;;;5.80;99.90;;;;;;5060599;28;20522;-67
2022/10/12 05:01:42;;;;;;;67.82;27.15;;;5.80;99.90;;;;;;5073022;28;20119;-67
2022/10/12 05:04:08;;;;;;;64.53;26.30;;;5.80;99.90;;;;;;5037816;28;20075;-67
2022/10/12 05:06:33;;;;;;;70.35;27.33;;;5.80;99.90;;;;;;5034642;28;20037;-68
2022/10/12 05:08:59;;;;;;;59.70;23.75;;;5.80;99.90;;;;;;5037103;28;20045;-68
2022/10/12 05:11:25;;;;;;;50.95;22.08;;;5.80;99.90;;;;;;5034352;28;20037;-68
2022/10/12 05:13:50;;;;;;;50.28;21.73;;;5.80;99.90;;;;;;5035557;28;20029;-67
2022/10/12 05:16:16;;;;;;;53.55;22.40;;;5.80;99.90;;;;;;5038552;28;20423;-68
2022/10/12 05:18:41;;;;;;;66.90;25.02;;;5.80;99.90;;;;;;5037764;28;20053;-68
2022/10/12 05:21:07;;;;;;;67.70;26.38;;;5.70;99.90;;;;;;5035925;28;20127;-67
2022/10/12 05:23:32;;;;;;;81.05;27.00;;;5.80;99.90;;;;;;5037425;28;20048;-68
2022/10/12 05:25:58;;;;;;;73.57;27.25;;;5.70;99.90;;;;;;5037919;28;20037;-68
2022/10/12 05:28:24;;;;;;;69.93;26.92;;;5.80;99.90;;;;;;5036349;28;20049;-68
2022/10/12 05:30:50;;;;;;;68.25;25.88;;;5.70;99.90;;;;;;5037604;28;20741;-68
2022/10/12 05:33:16;;;;;;;62.90;25.30;;;5.70;99.90;;;;;;5033182;28;20037;-68
2022/10/12 05:35:43;;;;;;;65.60;25.02;;;5.70;99.90;;;;;;5036642;28;20041;-67
2022/10/12 05:38:09;;;;;;;57.30;24.42;;;5.70;99.90;;;;;;5035780;28;20446;-68
2022/10/12 05:40:35;;;;;;;62.28;25.70;;;5.70;99.90;;;;;;5035532;28;20068;-68
2022/10/12 05:43:01;;;;;;;59.75;25.67;;;5.60;99.90;;;;;;5032576;28;20088;-67
2022/10/12 05:45:26;;;;;;;69.75;27.33;;;5.70;99.90;;;;;;5035022;28;20071;-68
2022/10/12 05:47:52;;;;;;;67.20;27.17;;;5.60;99.90;;;;;;5033244;28;20080;-68
2022/10/12 05:50:17;;;;;;;63.53;27.88;;;5.60;99.90;;;;;;5031225;28;20099;-68
2022/10/12 05:52:43;;;;;;;70.00;27.45;;;5.50;99.90;;;;;;5065154;28;20484;-68
2022/10/12 05:55:09;;;;;;;66.93;27.65;;;5.50;99.90;;;;;;5035665;28;21375;-67
2022/10/12 05:57:36;;;;;;;68.93;29.10;;;5.50;99.90;;;;;;5067003;28;20396;-68
2022/10/12 06:00:04;;;;;;;82.90;29.38;;;5.50;99.90;;;;;;5032948;28;20107;-67
2022/10/12 06:02:29;;;;;;;75.90;29.48;;;5.50;99.90;;;;;;5034914;28;20051;-67
2022/10/12 06:04:55;;;;;;;85.43;31.67;;;5.40;99.90;;;;;;5039434;28;20516;-67
2022/10/12 06:07:20;;;;;;;88.65;31.23;;;5.40;99.90;;;;;;5036160;28;20232;-67
2022/10/12 06:09:47;;;;;;;78.15;30.65;;;5.40;99.90;;;;;;5034164;28;20033;-67
2022/10/12 06:12:13;;;;;;;79.35;33.33;;;5.40;99.90;;;;;;5025919;28;20044;-67
2022/10/12 06:14:39;;;;;;;76.78;29.98;;;5.40;99.90;;;;;;5038912;28;20045;-67
2022/10/12 06:17:05;;;;;;;82.05;30.63;;;5.40;99.90;;;;;;5036050;28;20045;-67
2022/10/12 06:19:30;;;;;;;85.80;31.80;;;5.40;99.90;;;;;;5034112;28;20792;-67
2022/10/12 06:21:56;;;;;;;83.63;30.83;;;5.30;99.90;;;;;;5036367;28;20259;-67
2022/10/12 06:24:21;;;;;;;78.07;31.15;;;5.30;99.90;;;;;;5039955;28;20037;-67
2022/10/12 06:26:47;;;;;;;75.30;30.38;;;5.30;99.90;;;;;;5045106;28;20048;-68
2022/10/12 06:29:13;;;;;;;81.25;32.92;;;5.30;99.90;;;;;;5032632;28;20044;-67
2022/10/12 06:31:38;;;;;;;86.25;33.35;;;5.40;99.90;;;;;;5046038;28;20033;-67
2022/10/12 06:34:04;;;;;;;88.88;34.85;;;5.20;99.90;;;;;;5040531;28;20029;-67
2022/10/12 06:36:30;;;;;;;81.88;32.75;;;5.20;99.90;;;;;;5043591;28;20135;-67
2022/10/12 06:38:55;;;;;;;74.30;31.13;;;5.20;99.90;;;;;;5041528;28;20041;-67
2022/10/12 06:41:21;;;;;;;77.43;30.65;;;5.30;99.90;;;;;;5039835;28;20068;-67
2022/10/12 06:43:46;;;;;;;75.65;29.48;;;5.30;99.90;;;;;;5039606;28;20078;-67
2022/10/12 06:46:12;;;;;;;74.63;29.75;;;5.40;99.90;;;;;;5041889;28;20033;-67
2022/10/12 06:48:37;;;;;;;71.25;29.35;;;5.20;99.90;;;;;;5038295;28;20095;-67
2022/10/12 06:51:03;;;;;;;69.38;28.60;;;5.30;99.90;;;;;;5039863;28;20040;-67
2022/10/12 06:53:31;;;;;;;70.75;28.75;;;5.30;99.90;;;;;;5041921;28;20045;-67
2022/10/12 06:55:57;;;;;;;52.47;24.73;;;5.40;99.90;;;;;;5041033;28;20045;-68
2022/10/12 06:58:23;;;;;;;72.13;28.40;;;5.40;99.90;;;;;;5039141;28;20039;-67
2022/10/12 07:00:48;;;;;;;68.43;29.15;;;5.40;99.90;;;;;;5040832;28;20038;-68
2022/10/12 07:03:15;;;;;;;68.93;28.80;;;5.50;99.90;;;;;;5040379;28;20036;-67
2022/10/12 07:05:41;;;;;;;68.18;29.17;;;5.60;99.90;;;;;;5074644;28;20059;-68
2022/10/12 07:08:06;;;;;;;64.18;27.38;;;5.70;99.90;;;;;;5047595;28;20041;-68
2022/10/12 07:10:32;;;;;;;63.70;28.23;;;5.90;99.90;;;;;;5040257;28;20124;-68
2022/10/12 07:12:58;;;;;;;87.53;32.72;;;6.00;99.90;;;;;;5040531;28;20053;-68
2022/10/12 07:15:23;;;;;;;84.97;34.47;;;6.10;99.90;;;;;;5021493;28;20159;-68
2022/10/12 07:17:49;;;;;;;84.70;32.53;;;6.20;99.90;;;;;;5047006;28;20047;-68
2022/10/12 07:20:14;;;;;;;97.90;35.22;;;6.40;99.90;;;;;;5039695;28;20037;-68
2022/10/12 07:22:40;;;;;;;95.68;36.72;;;6.50;99.90;;;;;;5038299;28;20223;-68
2022/10/12 07:25:06;;;;;;;108.53;38.22;;;6.60;99.90;;;;;;5039843;28;20049;-68
2022/10/12 07:27:32;;;;;;;101.43;39.72;;;6.70;99.90;;;;;;5072019;28;20476;-69
2022/10/12 07:29:57;;;;;;;103.63;37.10;;;6.90;99.90;;;;;;5047093;28;20510;-69
2022/10/12 07:32:23;;;;;;;125.47;41.28;;;7.10;99.90;;;;;;5047683;28;20045;-69
2022/10/12 07:34:48;;;;;;;123.47;42.38;;;7.20;99.90;;;;;;5037653;28;20047;-69
2022/10/12 07:37:14;;;;;;;115.30;39.50;;;7.20;99.90;;;;;;5037837;28;20077;-69
2022/10/12 07:39:40;;;;;;;120.53;40.83;;;7.20;99.90;;;;;;5040386;28;20463;-69
2022/10/12 07:42:06;;;;;;;127.05;42.55;;;7.40;99.90;;;;;;5049080;28;20033;-70
2022/10/12 07:44:32;;;;;;;118.07;41.50;;;7.40;99.90;;;;;;5050379;28;20047;-70
2022/10/12 07:46:57;;;;;;;125.80;43.85;;;7.50;99.90;;;;;;5049892;28;20127;-70
2022/10/12 07:49:23;;;;;;;118.90;41.55;;;7.50;99.90;;;;;;5049930;28;20098;-70
2022/10/12 07:51:49;;;;;;;121.93;41.45;;;7.40;99.90;;;;;;5049162;28;20388;-70
2022/10/12 07:54:14;;;;;;;129.73;42.83;;;7.50;99.90;;;;;;5048207;28;20128;-70
2022/10/12 07:56:41;;;;;;;125.90;44.03;;;7.50;99.90;;;;;;5041900;28;20095;-70
2022/10/12 07:59:06;;;;;;;125.68;43.97;;;7.60;99.90;;;;;;5039868;28;20115;-70
2022/10/12 08:01:33;;;;;;;117.85;42.38;;;7.60;99.90;;;;;;5048660;28;20136;-70
2022/10/12 08:03:59;;;;;;;122.28;42.65;;;7.70;99.90;;;;;;5051531;28;20086;-70
2022/10/12 08:06:26;;;;;;;120.65;41.80;;;7.70;99.90;;;;;;5045500;28;20052;-70
2022/10/12 08:08:52;;;;;;;123.20;43.60;;;7.80;99.90;;;;;;5037584;28;20037;-70
2022/10/12 08:11:19;;;;;;;110.72;40.47;;;7.80;99.90;;;;;;5035664;28;20052;-70
2022/10/12 08:13:45;;;;;;;120.72;41.03;;;7.90;99.90;;;;;;5043582;28;20127;-70
2022/10/12 08:16:13;;;;;;;116.55;41.80;;;8.00;99.90;;;;;;5039012;28;20037;-70
2022/10/12 08:18:39;;;;;;;116.72;40.17;;;8.00;99.90;;;;;;5044516;28;20041;-70
2022/10/12 08:21:07;;;;;;;106.72;39.30;;;8.00;99.90;;;;;;5030885;28;20036;-70
2022/10/12 08:23:34;;;;;;;108.30;40.00;;;8.10;99.90;;;;;;5037700;28;20481;-70
2022/10/12 08:26:00;;;;;;;105.20;39.08;;;8.10;99.90;;;;;;5046992;28;20114;-69
2022/10/12 08:28:26;;;;;;;113.38;37.78;;;8.00;99.90;;;;;;5041724;28;20034;-70
2022/10/12 08:30:52;;;;;;;108.20;36.55;;;8.10;99.90;;;;;;5046498;28;20036;-69
2022/10/12 08:33:18;;;;;;;107.72;37.35;;;8.20;99.90;;;;;;5044316;28;20469;-69
2022/10/12 08:35:45;;;;;;;94.10;33.75;;;8.10;99.90;;;;;;5049220;28;20499;-69
2022/10/12 08:38:11;;;;;;;102.43;33.03;;;8.20;99.90;;;;;;5033944;28;20032;-69
2022/10/12 08:41:04;;;;;;;93.88;32.10;;;8.20;99.90;;;;;;5065419;28;20041;-68
2022/10/12 08:43:41;;;;;;;85.80;30.42;;;8.40;99.90;;;;;;5038928;28;20076;-69
2022/10/12 08:46:07;;;;;;;91.93;30.33;;;8.40;99.90;;;;;;5036641;28;20382;-68
2022/10/12 08:48:49;;;;;;;85.53;30.20;;;8.60;99.90;;;;;;5038221;28;20055;-66
2022/10/12 08:51:23;;;;;;;100.72;30.92;;;8.60;99.90;;;;;;5034054;28;20040;-66
2022/10/12 08:54:06;;;;;;;81.18;29.38;;;8.70;99.90;;;;;;5069467;28;20431;-66
2022/10/12 08:56:34;;;;;;;;;;;8.90;99.90;;;;;;5067744;28;20488;-67
2022/10/12 08:59:01;;;;;;;80.35;27.70;;;9.00;99.90;;;;;;5048072;28;19928;-66
2022/10/12 09:01:26;;;;;;;72.78;27.27;;;9.00;99.90;;;;;;5033679;28;20527;-66
2022/10/12 09:04:01;;;;;;;74.55;26.15;;;9.10;99.90;;;;;;5047623;28;20039;-67
2022/10/12 09:06:49;;;;;;;75.00;25.20;;;9.20;99.90;;;;;;5049409;28;20400;-67
2022/10/12 09:09:41;;;;;;;67.90;24.45;;;9.30;99.90;;;;;;5042225;28;20131;-67
2022/10/12 09:12:43;;;;;;;61.08;24.77;;;9.30;99.90;;;;;;5048224;28;20392;-67
2022/10/12 09:15:18;;;;;;;68.30;22.85;;;9.40;99.90;;;;;;5049711;28;20175;-67
2022/10/12 09:17:49;;;;;;;56.40;20.90;;;9.60;99.90;;;;;;5048744;28;20048;-67
2022/10/12 09:20:34;;;;;;;56.60;19.35;;;9.70;99.90;;;;;;5041380;28;20049;-67
2022/10/12 09:23:23;;;;;;;46.22;18.40;;;9.80;99.90;;;;;;5061397;28;20033;-67
2022/10/12 09:25:49;;;;;;;45.50;18.33;;;9.80;99.90;;;;;;5037057;28;20060;-67
2022/10/12 09:28:28;;;;;;;62.13;18.00;;;9.90;99.90;;;;;;5028537;28;20041;-67
2022/10/12 09:31:09;;;;;;;48.38;16.13;;;10.00;99.90;;;;;;5038789;28;20079;-66
2022/10/12 09:33:50;;;;;;;43.90;16.17;;;10.10;99.90;;;;;;5036106;28;20039;-67
2022/10/12 09:36:20;;;;;;;48.08;15.20;;;10.30;99.90;;;;;;5040191;28;20053;-66
2022/10/12 09:38:48;;;;;;;41.33;15.07;;;10.30;99.90;;;;;;5051620;28;20068;-66
2022/10/12 09:41:31;;;;;;;40.63;14.75;;;10.40;99.90;;;;;;5049812;28;20079;-66
2022/10/12 09:44:00;;;;;;;39.92;14.93;;;10.40;99.90;;;;;;5029803;28;20064;-67
2022/10/12 09:46:36;;;;;;;44.80;14.77;;;10.50;99.90;;;;;;5031361;28;20049;-66
2022/10/12 09:49:01;;;;;;;44.17;15.15;;;10.60;99.90;;;;;;5050809;28;20045;-66
2022/10/12 09:51:29;;;;;;;48.67;14.65;;;10.70;99.90;;;;;;5051521;28;20404;-66
2022/10/12 09:53:57;;;;;;;40.00;14.93;;;10.70;99.90;;;;;;5050148;28;20052;-67
2022/10/12 09:56:29;;;;;;;45.70;15.82;;;10.90;99.90;;;;;;5048851;28;20044;-66
2022/10/12 09:59:16;;;;;;;34.75;14.85;;;10.90;99.90;;;;;;5047767;28;20116;-66
2022/10/12 10:01:57;;;;;;;40.72;15.43;;;11.00;99.90;;;;;;5051112;28;20041;-66
2022/10/12 10:04:25;;;;;;;39.97;15.88;;;11.10;99.90;;;;;;5042662;28;20046;-66
2022/10/12 10:06:51;;;;;;;37.17;15.25;;;11.20;99.90;;;;;;5031723;28;20049;-66
2022/10/12 10:09:34;;;;;;;35.17;14.85;;;11.30;99.90;;;;;;5043016;28;20136;-66
2022/10/12 10:12:18;;;;;;;38.50;14.32;;;11.40;99.90;;;;;;5047861;28;20121;-65
2022/10/12 10:14:55;;;;;;;29.85;13.32;;;11.60;99.90;;;;;;5049941;28;20049;-65
2022/10/12 10:17:31;;;;;;;27.77;13.00;;;11.60;99.90;;;;;;5050355;28;20036;-65
2022/10/12 10:19:58;;;;;;;39.40;14.13;;;11.70;99.90;;;;;;5051119;28;20040;-65
2022/10/12 10:22:23;;;;;;;32.42;13.52;;;11.80;99.90;;;;;;5050002;28;20080;-65
2022/10/12 10:24:52;;;;;;;33.85;13.60;;;11.90;99.90;;;;;;5049283;28;20084;-65
2022/10/12 10:27:38;;;;;;;37.42;12.95;;;12.00;99.90;;;;;;5051560;28;20479;-65
2022/10/12 10:30:16;;;;;;;38.25;13.50;;;12.10;99.90;;;;;;5050413;28;20045;-66
2022/10/12 10:32:43;;;;;;;33.30;12.13;;;12.20;99.90;;;;;;5049409;28;20432;-65
2022/10/12 10:35:27;;;;;;;25.65;11.00;;;12.30;99.90;;;;;;5043702;28;20047;-66
2022/10/12 10:38:14;;;;;;;29.45;10.80;;;12.30;99.90;;;;;;5047056;28;20048;-65
2022/10/12 10:41:02;;;;;;;24.55;10.40;;;12.40;99.90;;;;;;5050249;28;20111;-65
2022/10/12 10:43:48;;;;;;;25.90;10.13;;;12.50;99.90;;;;;;5050189;28;20094;-65
2022/10/12 10:46:36;;;;;;;26.40;11.57;;;12.50;99.90;;;;;;5051074;28;20103;-65
2022/10/12 10:49:06;;;;;;;23.85;9.40;;;12.60;99.90;;;;;;5049252;28;20484;-65
2022/10/12 10:51:49;;;;;;;26.15;8.57;;;12.60;99.90;;;;;;5049031;28;20041;-65
2022/10/12 10:54:21;;;;;;;27.17;8.13;;;12.70;99.90;;;;;;5048541;28;20044;-65
2022/10/12 10:56:51;;;;;;;22.88;7.40;;;12.70;99.90;;;;;;5044365;28;20478;-65
2022/10/12 10:59:28;;;;;;;18.60;7.10;;;12.70;99.90;;;;;;5048592;28;20045;-65
2022/10/12 11:01:59;;;;;;;22.30;8.18;;;12.80;99.90;;;;;;5048493;28;20040;-65
2022/10/12 11:04:44;;;;;;;30.45;8.40;;;12.80;99.90;;;;;;5049773;28;20045;-65
2022/10/12 11:07:28;;;;;;;23.25;7.50;;;12.80;99.90;;;;;;5052839;28;20129;-65
2022/10/12 11:09:58;;;;;;;24.00;8.23;;;12.90;99.90;;;;;;5053641;28;20040;-65
2022/10/12 11:12:30;;;;;;;26.20;7.60;;;12.90;99.90;;;;;;5048375;28;20463;-65
2022/10/12 11:15:14;;;;;;;29.80;8.38;;;12.90;99.90;;;;;;5053464;28;20087;-64
2022/10/12 11:17:49;;;;;;;22.90;8.38;;;12.90;99.90;;;;;;5052572;28;20376;-65
2022/10/12 11:20:40;;;;;;;20.85;6.95;;;13.00;99.90;;;;;;5051025;28;20043;-65
2022/10/12 11:23:18;;;;;;;20.88;6.32;;;13.10;99.90;;;;;;5052287;28;20043;-65
2022/10/12 11:26:18;;;;;;;17.25;6.10;;;13.10;99.90;;;;;;5052202;28;20130;-65
2022/10/12 11:28:44;;;;;;;22.45;7.03;;;13.10;99.90;;;;;;5051557;28;20045;-67
2022/10/12 11:31:30;;;;;;;19.65;5.70;;;13.10;99.90;;;;;;5061399;28;20411;-65
2022/10/12 11:33:58;;;;;;;19.83;6.10;;;13.10;99.90;;;;;;5052706;28;20044;-65
2022/10/12 11:36:27;;;;;;;23.52;6.38;;;13.10;99.90;;;;;;5044750;28;20064;-65
2022/10/12 11:39:00;;;;;;;19.88;5.72;;;13.10;99.90;;;;;;5035775;28;20067;-65
2022/10/12 11:41:44;;;;;;;20.38;5.97;;;13.10;99.90;;;;;;5051838;28;20701;-64
2022/10/12 11:44:19;;;;;;;17.83;5.38;;;13.20;99.90;;;;;;5050380;28;20048;-64
2022/10/12 11:47:00;;;;;;;20.65;5.80;;;13.20;99.90;;;;;;5049213;28;20052;-65
2022/10/12 11:49:36;;;;;;;16.42;5.95;;;13.30;99.90;;;;;;5046382;28;20029;-65
2022/10/12 11:52:08;;;;;;;19.48;6.25;;;13.30;99.90;;;;;;5032827;28;20045;-64
2022/10/12 11:54:51;;;;;;;23.13;6.15;;;13.40;99.90;;;;;;5049117;28;20044;-65
2022/10/12 11:57:29;;;;;;;19.88;5.82;;;13.40;99.90;;;;;;5031224;28;20136;-65
2022/10/12 12:00:00;;;;;;;22.17;6.22;;;13.50;99.90;;;;;;5030382;28;20118;-65
2022/10/12 12:02:39;;;;;;;21.63;6.93;;;13.50;99.90;;;;;;5035557;28;20052;-65
2022/10/12 12:05:13;;;;;;;24.13;7.80;;;13.50;99.90;;;;;;5051464;28;20041;-65
2022/10/12 12:07:46;;;;;;;19.75;7.25;;;13.50;99.90;;;;;;5051587;28;20124;-65
2022/10/12 12:10:24;;;;;;;22.98;7.72;;;13.50;99.90;;;;;;5051609;28;20507;-65
2022/10/12 12:13:10;;;;;;;23.15;8.15;;;13.60;99.90;;;;;;5049982;28;20045;-65
2022/10/12 12:15:36;;;;;;;29.30;8.85;;;13.60;99.90;;;;;;5049862;28;20515;-65
2022/10/12 12:18:18;;;;;;;23.77;8.75;;;13.60;99.90;;;;;;5049513;28;20041;-65
2022/10/12 12:20:44;;;;;;;26.45;8.95;;;13.70;99.90;;;;;;5031442;28;20485;-65
2022/10/12 12:23:27;;;;;;;26.77;9.23;;;13.70;99.90;;;;;;5044346;28;20041;-64
2022/10/12 12:26:13;;;;;;;27.23;9.30;;;13.80;99.90;;;;;;5050599;28;20052;-65
2022/10/12 12:28:44;;;;;;;27.75;9.48;;;13.80;99.90;;;;;;5051408;28;20080;-65
2022/10/12 12:31:23;;;;;;;24.67;9.35;;;13.80;99.90;;;;;;5031245;28;20072;-64
2022/10/12 12:34:05;;;;;;;28.27;9.85;;;13.80;99.90;;;;;;5030774;28;20041;-65
2022/10/12 12:36:37;;;;;;;24.55;9.65;;;13.90;99.90;;;;;;5031068;28;20053;-65
2022/10/12 12:39:07;;;;;;;23.33;9.93;;;13.90;99.90;;;;;;5059588;28;20381;-66
2022/10/12 12:41:51;;;;;;;23.83;9.80;;;13.90;99.90;;;;;;5045241;28;20033;-65
2022/10/12 12:44:40;;;;;;;26.88;10.25;;;13.90;99.90;;;;;;5036377;28;20069;-66
2022/10/12 12:47:06;;;;;;;28.15;10.88;;;14.00;99.90;;;;;;5049176;28;20039;-65
2022/10/12 12:49:42;;;;;;;29.52;10.48;;;14.00;99.90;;;;;;5033460;28;20041;-66
2022/10/12 12:52:17;;;;;;;24.02;10.40;;;14.00;99.90;;;;;;5030714;28;20076;-65